logo
Rechercher aéroport 
image banner adimage banner adimage banner ad
image banner ad

LGSY - Skiros

Situé à , Greece

ICAO - LGSY, IATA - SKU

Données fournies par Airmate  

Information générale

Coordonnées: N38°58'3" E24°29'15"
Élévation : 44 feet MSL.
 
Évalué:
Voir évaluations:
[VIEW]
Voir autres Aéroports à Euboea

Données opérationnelles

Special qualification required
Heure actuelle UTC:
Heure actuelle locale:
Météo
TAF: TAF LGSY 270200Z 2703/2712 03012KT 9999 FEW020 TEMPO 2703/2706 03015G25KT
Voir NOTAMs / SUP AIP / TFR affectant cet aéroport [VIEW]
Fréquences de communication: [VIEW]

Pistes:

Identifiant RWYQFULongueur (ft)Largeur (ft)SurfaceLDA (ft)
17176°984998UNK
35356°984998UNK

Coordonnées de l'aéroport

Adresse: Greece

Handlers

Goldair Handling

Goldair Handling

Pandair

Pandair
[VIEW][VIEW]
+306944884588

Vue satellite de LGSY